Time;durP1;ratioP1;P1;durP2;ratioP2;P2;SDS_P1;SDS_P2;PMS_P1;PMS_P2;Temp;Humidity;BMP_temperature;BMP_pressure;BME280_temperature;BME280_humidity;BME280_pressure;Samples;Min_cycle;Max_cycle;Signal;HPM_P1;HPM_P2
2022/03/10 00:00:04;;;;;;;41.72;26.95;;;;;;;;;;5037239;28;20121;-45
2022/03/10 00:02:30;;;;;;;35.95;23.98;;;;;;;;;;5037368;28;20437;-49
2022/03/10 00:04:56;;;;;;;35.30;24.23;;;;;;;;;;5037537;28;20044;-47
2022/03/10 00:07:22;;;;;;;24.33;17.13;;;;;;;;;;5036469;28;20024;-46
2022/03/10 00:09:52;;;;;;;20.25;14.35;;;;;;;;;;5049811;28;20037;-50
2022/03/10 00:12:19;;;;;;;33.38;18.92;;;;;;;;;;5072142;28;20052;-47
2022/03/10 00:14:45;;;;;;;34.80;20.05;;;;;;;;;;5071548;28;20021;-49
2022/03/10 00:17:11;;;;;;;35.85;20.60;;;;;;;;;;5071628;28;20028;-40
2022/03/10 00:19:37;;;;;;;38.53;21.60;;;;;;;;;;5071344;28;20051;-45
2022/03/10 00:22:06;;;;;;;74.57;32.63;;;;;;;;;;5071804;28;20064;-41
2022/03/10 00:24:33;;;;;;;112.18;43.88;;;;;;;;;;5071859;28;20062;-47
2022/03/10 00:26:59;;;;;;;107.85;46.45;;;;;;;;;;5071885;28;20032;-47
2022/03/10 00:29:25;;;;;;;100.18;42.80;;;;;;;;;;5070672;28;20469;-48
2022/03/10 00:31:51;;;;;;;68.78;33.92;;;;;;;;;;5072194;28;20039;-46
2022/03/10 00:34:20;;;;;;;62.72;30.27;;;;;;;;;;5062311;28;20040;-50
2022/03/10 00:36:48;;;;;;;56.30;27.27;;;;;;;;;;5070553;28;20060;-48
2022/03/10 00:39:14;;;;;;;49.53;25.50;;;;;;;;;;5071818;28;20020;-42
2022/03/10 00:41:40;;;;;;;51.55;23.08;;;;;;;;;;5071558;28;20094;-42
2022/03/10 00:44:06;;;;;;;37.20;20.70;;;;;;;;;;5071652;28;20031;-42
2022/03/10 00:46:32;;;;;;;42.90;22.52;;;;;;;;;;5072114;28;20078;-41
2022/03/10 00:48:58;;;;;;;32.53;19.73;;;;;;;;;;5073084;28;20035;-43
2022/03/10 00:51:27;;;;;;;32.60;18.33;;;;;;;;;;5073209;28;20066;-43
2022/03/10 00:53:55;;;;;;;35.55;20.65;;;;;;;;;;5073036;28;20104;-51
2022/03/10 00:56:21;;;;;;;36.03;19.48;;;;;;;;;;5072786;28;20035;-47
2022/03/10 00:58:47;;;;;;;29.08;19.40;;;;;;;;;;5075108;28;20115;-42
2022/03/10 01:01:16;;;;;;;34.45;20.80;;;;;;;;;;5076766;28;20123;-45
2022/03/10 01:03:42;;;;;;;35.92;21.10;;;;;;;;;;5076791;28;20024;-41
2022/03/10 01:06:10;;;;;;;42.40;23.70;;;;;;;;;;5076640;28;20115;-42
2022/03/10 01:08:36;;;;;;;43.40;24.10;;;;;;;;;;5076736;28;20028;-48
2022/03/10 01:11:03;;;;;;;41.00;23.17;;;;;;;;;;5076639;28;20028;-41
2022/03/10 01:13:29;;;;;;;40.75;23.52;;;;;;;;;;5076528;28;20021;-43
2022/03/10 01:15:55;;;;;;;41.28;24.42;;;;;;;;;;5076991;28;20572;-40
2022/03/10 01:18:21;;;;;;;38.83;22.92;;;;;;;;;;5076471;28;20036;-41
2022/03/10 01:20:47;;;;;;;41.95;22.73;;;;;;;;;;5076547;28;20186;-40
2022/03/10 01:23:15;;;;;;;37.15;21.58;;;;;;;;;;5076448;28;20068;-40
2022/03/10 01:25:42;;;;;;;31.73;20.30;;;;;;;;;;5076158;28;20040;-41
2022/03/10 01:28:08;;;;;;;35.55;20.17;;;;;;;;;;5076140;28;20024;-41
2022/03/10 01:30:34;;;;;;;33.13;20.75;;;;;;;;;;5076133;28;20031;-43
2022/03/10 01:33:00;;;;;;;34.08;20.35;;;;;;;;;;5076213;28;20028;-41
2022/03/10 01:35:27;;;;;;;30.70;18.30;;;;;;;;;;5076211;28;20028;-41
2022/03/10 01:37:53;;;;;;;31.52;18.33;;;;;;;;;;5076231;28;20531;-42
2022/03/10 01:40:19;;;;;;;31.52;21.48;;;;;;;;;;5076025;28;20040;-42
2022/03/10 01:42:47;;;;;;;39.47;23.23;;;;;;;;;;5075803;28;20037;-41
2022/03/10 01:45:16;;;;;;;38.47;20.60;;;;;;;;;;5075933;28;20077;-41
2022/03/10 01:47:42;;;;;;;32.47;20.17;;;;;;;;;;5076028;28;20043;-41
2022/03/10 01:50:12;;;;;;;39.58;24.15;;;;;;;;;;5075993;28;20380;-43
2022/03/10 01:52:39;;;;;;;38.78;22.63;;;;;;;;;;5075920;28;20096;-41
2022/03/10 01:55:06;;;;;;;37.10;22.58;;;;;;;;;;5075777;28;20029;-41
2022/03/10 01:57:32;;;;;;;42.28;24.58;;;;;;;;;;5075634;28;20021;-41
2022/03/10 01:59:58;;;;;;;32.08;20.35;;;;;;;;;;5075778;28;20016;-46
2022/03/10 02:02:27;;;;;;;30.58;19.27;;;;;;;;;;5075405;28;20508;-45
2022/03/10 02:04:53;;;;;;;34.22;20.25;;;;;;;;;;5075581;28;20059;-42
2022/03/10 02:10:16;;;;;;;32.28;20.73;;;;;;;;;;5074989;28;20036;-48
2022/03/10 02:12:43;;;;;;;35.08;20.25;;;;;;;;;;5075368;28;20027;-41
2022/03/10 02:18:04;;;;;;;28.00;17.33;;;;;;;;;;5075840;28;20040;-44
2022/03/10 02:20:30;;;;;;;36.17;25.23;;;;;;;;;;5075166;28;20021;-41
2022/03/10 02:22:57;;;;;;;59.28;39.53;;;;;;;;;;5075205;28;20495;-42
2022/03/10 02:25:23;;;;;;;60.20;36.78;;;;;;;;;;5075254;28;20119;-41
2022/03/10 02:27:53;;;;;;;42.63;24.40;;;;;;;;;;5075157;28;20033;-42
2022/03/10 02:30:19;;;;;;;59.80;36.70;;;;;;;;;;5075214;28;20090;-42
2022/03/10 02:32:46;;;;;;;33.63;21.13;;;;;;;;;;5073092;28;20074;-42
2022/03/10 02:35:12;;;;;;;30.90;20.05;;;;;;;;;;5074789;28;20039;-41
2022/03/10 02:37:39;;;;;;;36.60;23.42;;;;;;;;;;5074907;28;20442;-44
2022/03/10 02:40:06;;;;;;;30.30;19.23;;;;;;;;;;5074936;28;20441;-41
2022/03/10 02:42:32;;;;;;;25.08;17.35;;;;;;;;;;5074670;28;20029;-42
2022/03/10 02:44:58;;;;;;;30.95;20.10;;;;;;;;;;5075068;28;20017;-43
2022/03/10 02:47:24;;;;;;;25.92;17.45;;;;;;;;;;5074835;28;20021;-42
2022/03/10 02:49:50;;;;;;;66.53;41.42;;;;;;;;;;5074616;28;20017;-46
2022/03/10 02:52:17;;;;;;;44.38;27.35;;;;;;;;;;5074556;28;20024;-50
2022/03/10 02:54:44;;;;;;;52.88;32.47;;;;;;;;;;5074552;28;20021;-42
2022/03/10 02:57:10;;;;;;;63.42;38.88;;;;;;;;;;5074408;28;20033;-43
2022/03/10 02:59:36;;;;;;;44.70;28.35;;;;;;;;;;5074708;28;20510;-50
2022/03/10 03:02:02;;;;;;;42.75;23.65;;;;;;;;;;5074322;28;20058;-42
2022/03/10 03:04:29;;;;;;;39.35;26.00;;;;;;;;;;5074465;28;20476;-43
2022/03/10 03:06:55;;;;;;;35.10;22.65;;;;;;;;;;5074317;28;20028;-46
2022/03/10 03:09:21;;;;;;;38.83;24.42;;;;;;;;;;5074227;28;20060;-42
2022/03/10 03:11:49;;;;;;;35.03;22.63;;;;;;;;;;5074362;28;20028;-42
2022/03/10 03:14:22;;;;;;;32.88;20.55;;;;;;;;;;5074248;28;20449;-44
2022/03/10 03:16:48;;;;;;;36.40;22.95;;;;;;;;;;5056096;28;20064;-41
2022/03/10 03:19:14;;;;;;;36.88;24.73;;;;;;;;;;5073928;28;20034;-44
2022/03/10 03:21:40;;;;;;;30.05;19.70;;;;;;;;;;5072916;28;20439;-41
2022/03/10 03:24:07;;;;;;;32.47;21.75;;;;;;;;;;5073977;28;20046;-43
2022/03/10 03:26:33;;;;;;;33.70;22.27;;;;;;;;;;5074043;28;20016;-43
2022/03/10 03:28:59;;;;;;;40.60;25.65;;;;;;;;;;5073808;28;20119;-41
2022/03/10 03:31:25;;;;;;;39.78;25.52;;;;;;;;;;5073605;28;20063;-50
2022/03/10 03:33:51;;;;;;;33.25;22.48;;;;;;;;;;5073678;28;20477;-49
2022/03/10 03:36:17;;;;;;;41.80;25.77;;;;;;;;;;5073638;28;20069;-50
2022/03/10 03:38:43;;;;;;;30.35;20.52;;;;;;;;;;5073632;28;20024;-44
2022/03/10 03:41:09;;;;;;;46.92;28.63;;;;;;;;;;5073532;28;20032;-46
2022/03/10 03:43:36;;;;;;;50.75;30.60;;;;;;;;;;5073559;28;20031;-47
2022/03/10 03:46:02;;;;;;;45.50;27.27;;;;;;;;;;5073568;28;20025;-48
2022/03/10 03:48:28;;;;;;;44.00;27.88;;;;;;;;;;5073560;28;20024;-42
2022/03/10 03:50:54;;;;;;;46.47;29.02;;;;;;;;;;5073438;28;20028;-41
2022/03/10 03:53:20;;;;;;;36.35;22.23;;;;;;;;;;5073616;28;20386;-41
2022/03/10 03:55:46;;;;;;;38.38;24.85;;;;;;;;;;5073535;28;20456;-41
2022/03/10 03:58:12;;;;;;;30.33;21.58;;;;;;;;;;5073549;28;20465;-42
2022/03/10 04:00:39;;;;;;;32.90;22.23;;;;;;;;;;5073104;28;20028;-41
2022/03/10 04:03:09;;;;;;;36.42;22.88;;;;;;;;;;5073297;28;20044;-45
2022/03/10 04:05:35;;;;;;;32.72;22.13;;;;;;;;;;5072955;28;20020;-42
2022/03/10 04:08:01;;;;;;;31.10;21.00;;;;;;;;;;5073041;28;20027;-44
2022/03/10 04:10:27;;;;;;;35.45;24.08;;;;;;;;;;5073085;28;20023;-43
2022/03/10 04:12:53;;;;;;;31.73;20.17;;;;;;;;;;5073019;28;20528;-41
2022/03/10 04:15:22;;;;;;;33.60;22.13;;;;;;;;;;5054989;28;20342;-45
2022/03/10 04:17:48;;;;;;;44.00;28.05;;;;;;;;;;5073080;28;20152;-43
2022/03/10 04:20:14;;;;;;;40.00;24.85;;;;;;;;;;5072745;28;20111;-48
2022/03/10 04:22:43;;;;;;;39.80;26.27;;;;;;;;;;5054810;28;20115;-41
2022/03/10 04:25:10;;;;;;;34.65;22.42;;;;;;;;;;5072694;28;20107;-41
2022/03/10 04:27:37;;;;;;;33.53;22.70;;;;;;;;;;5072869;28;20032;-41
2022/03/10 04:30:06;;;;;;;37.42;23.90;;;;;;;;;;5072845;28;20032;-41
2022/03/10 04:32:43;;;;;;;33.50;22.80;;;;;;;;;;5072906;28;20063;-44
2022/03/10 04:35:10;;;;;;;34.85;21.38;;;;;;;;;;5076840;28;20025;-42
2022/03/10 04:37:36;;;;;;;34.25;22.20;;;;;;;;;;5077224;28;20028;-41
2022/03/10 04:40:06;;;;;;;33.42;21.75;;;;;;;;;;5058866;28;20027;-41
2022/03/10 04:42:33;;;;;;;27.95;18.73;;;;;;;;;;5076992;28;20039;-42
2022/03/10 04:44:59;;;;;;;32.97;21.60;;;;;;;;;;5076977;28;20028;-41
2022/03/10 04:47:25;;;;;;;32.85;20.10;;;;;;;;;;5076842;28;20025;-41
2022/03/10 04:49:51;;;;;;;20.08;13.88;;;;;;;;;;5076623;28;20070;-42
2022/03/10 04:52:17;;;;;;;19.58;12.95;;;;;;;;;;5076647;28;20111;-41
2022/03/10 04:54:43;;;;;;;30.13;15.05;;;;;;;;;;5076888;28;20024;-41
2022/03/10 04:57:09;;;;;;;20.02;13.13;;;;;;;;;;5059034;28;20440;-41
2022/03/10 04:59:37;;;;;;;23.05;14.00;;;;;;;;;;5058826;28;20017;-41
2022/03/10 05:02:03;;;;;;;21.23;12.75;;;;;;;;;;5076339;28;20052;-41
2022/03/10 05:04:29;;;;;;;16.63;10.15;;;;;;;;;;5076414;28;20031;-41
2022/03/10 05:06:55;;;;;;;15.48;8.85;;;;;;;;;;5076752;28;20469;-42
2022/03/10 05:09:21;;;;;;;23.98;14.10;;;;;;;;;;5076686;28;20028;-41
2022/03/10 05:11:48;;;;;;;20.15;10.35;;;;;;;;;;5076562;28;20092;-41
2022/03/10 05:14:16;;;;;;;19.90;12.00;;;;;;;;;;5076480;28;20024;-42
2022/03/10 05:16:42;;;;;;;22.67;11.45;;;;;;;;;;5076642;28;20482;-42
2022/03/10 05:19:08;;;;;;;26.73;13.55;;;;;;;;;;5076222;28;20054;-42
2022/03/10 05:21:36;;;;;;;29.17;12.93;;;;;;;;;;5057905;28;20035;-42
2022/03/10 05:24:02;;;;;;;27.27;11.85;;;;;;;;;;5076484;28;20044;-41
2022/03/10 05:26:28;;;;;;;19.88;11.05;;;;;;;;;;5076126;28;20029;-41
2022/03/10 05:28:56;;;;;;;14.60;9.20;;;;;;;;;;5076201;28;20107;-44
2022/03/10 05:31:22;;;;;;;18.13;11.48;;;;;;;;;;5076456;28;20552;-46
2022/03/10 05:33:48;;;;;;;18.75;11.35;;;;;;;;;;5076192;28;20040;-42
2022/03/10 05:36:14;;;;;;;18.48;10.35;;;;;;;;;;5075983;28;20013;-41
2022/03/10 05:38:41;;;;;;;14.00;9.32;;;;;;;;;;5076109;28;20048;-46
2022/03/10 05:41:07;;;;;;;17.65;10.20;;;;;;;;;;5076023;28;20021;-44
2022/03/10 05:43:33;;;;;;;18.63;11.25;;;;;;;;;;5075969;28;20036;-49
2022/03/10 05:45:59;;;;;;;15.82;8.98;;;;;;;;;;5074740;28;20502;-43
2022/03/10 05:48:25;;;;;;;15.43;8.88;;;;;;;;;;5075718;28;20028;-42
2022/03/10 05:50:51;;;;;;;16.60;9.00;;;;;;;;;;5075890;28;20493;-41
2022/03/10 05:53:18;;;;;;;19.38;11.05;;;;;;;;;;5075771;28;20036;-50
2022/03/10 05:55:46;;;;;;;21.70;10.52;;;;;;;;;;5075572;28;20480;-41
2022/03/10 05:58:12;;;;;;;22.95;10.32;;;;;;;;;;5075578;28;20057;-42
2022/03/10 06:00:38;;;;;;;17.67;10.75;;;;;;;;;;5075682;28;20086;-53
2022/03/10 06:03:06;;;;;;;26.35;11.65;;;;;;;;;;5075609;28;20043;-43
2022/03/10 06:05:33;;;;;;;21.48;11.32;;;;;;;;;;5075676;28;20048;-53
2022/03/10 06:07:59;;;;;;;16.48;7.93;;;;;;;;;;5075501;28;20064;-42
2022/03/10 06:10:25;;;;;;;19.05;9.50;;;;;;;;;;5075928;28;20078;-46
2022/03/10 06:12:51;;;;;;;15.23;9.48;;;;;;;;;;5075267;28;20500;-42
2022/03/10 06:15:18;;;;;;;14.73;9.07;;;;;;;;;;5075626;28;20102;-41
2022/03/10 06:17:44;;;;;;;12.50;8.00;;;;;;;;;;5075421;28;20028;-42
2022/03/10 06:20:11;;;;;;;13.73;7.97;;;;;;;;;;5075677;28;20476;-52
2022/03/10 06:22:37;;;;;;;16.77;7.82;;;;;;;;;;5075040;28;20041;-53
2022/03/10 06:25:04;;;;;;;15.80;8.27;;;;;;;;;;5075157;28;20025;-53
2022/03/10 06:27:30;;;;;;;17.50;9.85;;;;;;;;;;5075135;28;20024;-52
2022/03/10 06:29:57;;;;;;;13.85;8.23;;;;;;;;;;5075041;28;20024;-52
2022/03/10 06:32:24;;;;;;;18.35;8.38;;;;;;;;;;5075143;28;20025;-53
2022/03/10 06:34:51;;;;;;;14.93;7.80;;;;;;;;;;5074939;28;20024;-53
2022/03/10 06:37:18;;;;;;;14.20;8.75;;;;;;;;;;5075111;28;20017;-52
2022/03/10 06:39:44;;;;;;;16.55;13.18;;;;;;;;;;5074946;28;20532;-53
2022/03/10 06:42:10;;;;;;;14.65;7.88;;;;;;;;;;5074828;28;20033;-53
2022/03/10 06:44:36;;;;;;;13.63;8.80;;;;;;;;;;5074967;28;20099;-52
2022/03/10 06:47:12;;;;;;;17.50;11.20;;;;;;;;;;5074776;28;20035;-50
2022/03/10 06:49:39;;;;;;;15.10;8.57;;;;;;;;;;5074565;28;20031;-52
2022/03/10 06:52:06;;;;;;;18.13;9.07;;;;;;;;;;5074644;28;20519;-52
2022/03/10 06:54:32;;;;;;;19.50;8.13;;;;;;;;;;5074512;28;20024;-52
2022/03/10 06:56:58;;;;;;;12.77;8.40;;;;;;;;;;5074229;28;20028;-53
2022/03/10 06:59:24;;;;;;;17.48;8.23;;;;;;;;;;5074442;28;20056;-52
2022/03/10 07:01:50;;;;;;;15.02;7.60;;;;;;;;;;5074012;28;20048;-53
2022/03/10 07:04:16;;;;;;;13.70;8.38;;;;;;;;;;5074320;28;20070;-54
2022/03/10 07:06:42;;;;;;;13.93;9.43;;;;;;;;;;5074307;28;20063;-52
2022/03/10 07:09:09;;;;;;;10.55;6.80;;;;;;;;;;5074276;28;20031;-51
2022/03/10 07:11:35;;;;;;;17.98;10.80;;;;;;;;;;5074538;28;20021;-51
2022/03/10 07:14:01;;;;;;;14.85;9.10;;;;;;;;;;5055718;28;20036;-51
2022/03/10 07:16:28;;;;;;;30.65;8.55;;;;;;;;;;5074193;28;20019;-52
2022/03/10 07:18:54;;;;;;;11.90;7.57;;;;;;;;;;5055829;28;20115;-49
2022/03/10 07:21:20;;;;;;;16.40;8.20;;;;;;;;;;5073891;28;20110;-43
2022/03/10 07:23:47;;;;;;;15.10;7.88;;;;;;;;;;5074168;28;20025;-51
2022/03/10 07:26:13;;;;;;;14.48;7.43;;;;;;;;;;5073991;28;20017;-48
2022/03/10 07:28:39;;;;;;;12.07;6.78;;;;;;;;;;5073926;28;20047;-51
2022/03/10 07:31:06;;;;;;;16.20;8.10;;;;;;;;;;5074200;28;20481;-53
2022/03/10 07:33:32;;;;;;;10.63;7.72;;;;;;;;;;5073554;28;20040;-46
2022/03/10 07:35:59;;;;;;;11.10;7.18;;;;;;;;;;5073752;28;20025;-46
2022/03/10 07:38:25;;;;;;;12.55;7.30;;;;;;;;;;5073757;28;20024;-46
2022/03/10 07:40:51;;;;;;;14.38;7.10;;;;;;;;;;5073739;28;20029;-49
2022/03/10 07:43:18;;;;;;;16.20;9.70;;;;;;;;;;5073702;28;20086;-54
2022/03/10 07:45:44;;;;;;;12.43;7.70;;;;;;;;;;5073932;28;20020;-53
2022/03/10 07:48:10;;;;;;;15.10;7.55;;;;;;;;;;5073632;28;20105;-44
2022/03/10 07:50:36;;;;;;;10.85;7.07;;;;;;;;;;5073641;28;20025;-49
2022/03/10 07:53:04;;;;;;;11.85;7.45;;;;;;;;;;5073514;28;20485;-46
2022/03/10 07:55:30;;;;;;;13.65;7.28;;;;;;;;;;5073728;28;20472;-43
2022/03/10 07:57:56;;;;;;;14.48;7.50;;;;;;;;;;5073519;28;20025;-52
2022/03/10 08:00:23;;;;;;;14.13;7.57;;;;;;;;;;5073513;28;20040;-49
2022/03/10 08:02:49;;;;;;;11.30;7.25;;;;;;;;;;5073203;28;20052;-43
2022/03/10 08:05:15;;;;;;;10.82;6.80;;;;;;;;;;5073356;28;20020;-47
2022/03/10 08:07:41;;;;;;;19.25;8.40;;;;;;;;;;5072631;28;20020;-44
2022/03/10 08:10:11;;;;;;;16.77;8.77;;;;;;;;;;5073608;28;20054;-53
2022/03/10 08:12:37;;;;;;;20.95;8.90;;;;;;;;;;5073447;28;20081;-53
2022/03/10 08:15:03;;;;;;;28.27;11.68;;;;;;;;;;5073553;28;20060;-52
2022/03/10 08:17:30;;;;;;;22.90;9.45;;;;;;;;;;5073510;28;20020;-52
2022/03/10 08:19:58;;;;;;;13.35;7.68;;;;;;;;;;5073168;28;20032;-53
2022/03/10 08:22:24;;;;;;;11.13;7.40;;;;;;;;;;5073214;28;20028;-52
2022/03/10 08:24:50;;;;;;;14.10;7.60;;;;;;;;;;5073397;28;20024;-52
2022/03/10 08:27:16;;;;;;;15.40;7.22;;;;;;;;;;5073114;28;20448;-52
2022/03/10 08:29:46;;;;;;;14.18;7.80;;;;;;;;;;5073150;28;20024;-52
2022/03/10 08:32:13;;;;;;;15.13;8.93;;;;;;;;;;5073231;28;20037;-53
2022/03/10 08:34:41;;;;;;;24.48;9.32;;;;;;;;;;5073106;28;20163;-51
2022/03/10 08:37:07;;;;;;;16.20;8.60;;;;;;;;;;5055239;28;20028;-54
2022/03/10 08:39:34;;;;;;;15.77;8.95;;;;;;;;;;5073395;28;20047;-53
2022/03/10 08:42:00;;;;;;;12.40;6.97;;;;;;;;;;5073065;28;20102;-47
2022/03/10 08:44:28;;;;;;;12.27;7.45;;;;;;;;;;5072995;28;20541;-51
2022/03/10 08:46:55;;;;;;;21.58;12.82;;;;;;;;;;5073242;28;20056;-52
2022/03/10 08:49:21;;;;;;;24.05;14.45;;;;;;;;;;5072874;28;20029;-52
2022/03/10 08:51:48;;;;;;;34.38;15.32;;;;;;;;;;5054566;28;20037;-56
2022/03/10 08:54:14;;;;;;;30.02;14.82;;;;;;;;;;5072761;28;20028;-53
2022/03/10 08:56:41;;;;;;;31.33;18.15;;;;;;;;;;5072915;28;20032;-52
2022/03/10 08:59:07;;;;;;;29.33;16.98;;;;;;;;;;5072954;28;20116;-52
2022/03/10 09:01:33;;;;;;;34.40;16.50;;;;;;;;;;5072641;28;20090;-51
2022/03/10 09:04:00;;;;;;;19.58;11.05;;;;;;;;;;5072791;28;20033;-49
2022/03/10 09:06:26;;;;;;;31.02;16.45;;;;;;;;;;5073296;28;20024;-52
2022/03/10 09:08:52;;;;;;;23.42;12.35;;;;;;;;;;5072905;28;20476;-51
2022/03/10 09:11:18;;;;;;;20.60;10.18;;;;;;;;;;5073018;28;20032;-44
2022/03/10 09:13:48;;;;;;;31.42;17.80;;;;;;;;;;5072700;28;20035;-42
2022/03/10 09:16:15;;;;;;;40.50;21.95;;;;;;;;;;5071288;28;20025;-42
2022/03/10 09:18:41;;;;;;;30.55;17.58;;;;;;;;;;5071318;28;20016;-50
2022/03/10 09:21:07;;;;;;;34.08;17.77;;;;;;;;;;5075118;28;20020;-42
2022/03/10 09:23:33;;;;;;;38.55;20.63;;;;;;;;;;5075012;28;20033;-44
2022/03/10 09:25:59;;;;;;;18.35;10.75;;;;;;;;;;5075048;28;20400;-48
2022/03/10 09:28:25;;;;;;;16.80;10.38;;;;;;;;;;5075947;28;20067;-46
2022/03/10 09:30:52;;;;;;;18.50;10.57;;;;;;;;;;5074745;28;20064;-51
2022/03/10 09:33:18;;;;;;;15.57;9.98;;;;;;;;;;5074619;28;20423;-53
2022/03/10 09:35:44;;;;;;;18.17;10.10;;;;;;;;;;5074721;28;20032;-52
2022/03/10 09:38:10;;;;;;;23.70;12.75;;;;;;;;;;5073227;28;20078;-51
2022/03/10 09:40:36;;;;;;;18.80;11.20;;;;;;;;;;5073952;28;20042;-42
2022/03/10 09:43:02;;;;;;;28.25;14.57;;;;;;;;;;5073457;28;20115;-47
2022/03/10 09:45:30;;;;;;;29.17;16.88;;;;;;;;;;5074444;28;20369;-48
2022/03/10 09:47:56;;;;;;;43.55;24.42;;;;;;;;;;5074239;28;20020;-42
2022/03/10 09:50:22;;;;;;;51.40;27.38;;;;;;;;;;5074583;28;20020;-47
2022/03/10 09:52:48;;;;;;;26.88;15.48;;;;;;;;;;5074286;28;20023;-49
2022/03/10 09:55:16;;;;;;;35.67;22.25;;;;;;;;;;5074457;28;20016;-50
2022/03/10 09:57:43;;;;;;;41.15;24.35;;;;;;;;;;5074183;28;20017;-48
2022/03/10 10:00:10;;;;;;;39.88;21.08;;;;;;;;;;5074591;28;20024;-47
2022/03/10 10:02:37;;;;;;;27.30;15.70;;;;;;;;;;5056723;28;20052;-60
2022/03/10 10:05:18;;;;;;;20.05;11.45;;;;;;;;;;5074960;28;20021;-51
2022/03/10 10:07:59;;;;;;;25.45;14.18;;;;;;;;;;5074005;28;20020;-47
2022/03/10 10:10:25;;;;;;;;;;;;;;;;;;5074330;28;20028;-43
2022/03/10 10:12:54;;;;;;;30.30;14.25;;;;;;;;;;5074762;28;19908;-49
2022/03/10 10:15:20;;;;;;;34.88;13.48;;;;;;;;;;5074591;28;20486;-50
2022/03/10 10:17:55;;;;;;;25.13;11.10;;;;;;;;;;5075011;28;20024;-53
2022/03/10 10:20:21;;;;;;;24.15;9.50;;;;;;;;;;5074819;28;20024;-49
2022/03/10 10:22:56;;;;;;;20.05;9.75;;;;;;;;;;5074591;28;20035;-48
2022/03/10 10:25:23;;;;;;;31.58;18.33;;;;;;;;;;5074568;28;20075;-50
2022/03/10 10:27:49;;;;;;;54.53;28.15;;;;;;;;;;5074641;28;20070;-48
2022/03/10 10:30:15;;;;;;;45.53;24.75;;;;;;;;;;5073427;28;20031;-52
2022/03/10 10:32:53;;;;;;;15.70;8.70;;;;;;;;;;5072950;28;20483;-50
2022/03/10 10:35:20;;;;;;;17.17;10.80;;;;;;;;;;5072517;28;20021;-50
2022/03/10 10:37:49;;;;;;;23.50;10.70;;;;;;;;;;5073301;28;20793;-47
2022/03/10 10:40:23;;;;;;;26.20;13.07;;;;;;;;;;5073397;28;20020;-50
2022/03/10 10:42:49;;;;;;;21.98;11.93;;;;;;;;;;5070433;28;20030;-51
2022/03/10 10:45:31;;;;;;;19.92;10.02;;;;;;;;;;5074086;28;20017;-48
2022/03/10 10:47:59;;;;;;;19.63;10.70;;;;;;;;;;5072396;28;20028;-47
2022/03/10 10:50:25;;;;;;;29.20;12.98;;;;;;;;;;5073818;28;20473;-51
2022/03/10 10:52:51;;;;;;;17.05;10.60;;;;;;;;;;5073582;28;20040;-47
2022/03/10 10:55:17;;;;;;;19.95;10.25;;;;;;;;;;5073499;28;20012;-51
2022/03/10 10:57:47;;;;;;;29.20;13.68;;;;;;;;;;5073770;28;20025;-48
2022/03/10 11:00:17;;;;;;;21.05;12.40;;;;;;;;;;5055858;28;20020;-53
2022/03/10 11:02:43;;;;;;;19.88;12.43;;;;;;;;;;5072667;28;20063;-51
2022/03/10 11:05:11;;;;;;;24.17;14.35;;;;;;;;;;5055641;28;20016;-45
2022/03/10 11:07:39;;;;;;;17.05;9.88;;;;;;;;;;5056224;28;20099;-45
2022/03/10 11:10:07;;;;;;;17.92;11.23;;;;;;;;;;5073007;28;20446;-49
2022/03/10 11:12:37;;;;;;;20.15;10.88;;;;;;;;;;5073320;28;20021;-47
2022/03/10 11:15:04;;;;;;;20.10;12.93;;;;;;;;;;5055455;28;20028;-48
2022/03/10 11:17:30;;;;;;;23.98;12.75;;;;;;;;;;5073279;28;20052;-46
2022/03/10 11:19:56;;;;;;;20.48;11.75;;;;;;;;;;5073283;28;20012;-50
2022/03/10 11:22:43;;;;;;;22.13;13.15;;;;;;;;;;5072954;28;20038;-42
2022/03/10 11:25:32;;;;;;;17.08;9.48;;;;;;;;;;4990813;28;20104;-47
2022/03/10 11:28:09;;;;;;;17.98;9.13;;;;;;;;;;4991778;28;20031;-47
2022/03/10 11:30:36;;;;;;;16.20;11.20;;;;;;;;;;4991516;28;20093;-42
2022/03/10 11:33:05;;;;;;;24.58;13.75;;;;;;;;;;4991295;28;20030;-42
2022/03/10 11:35:32;;;;;;;26.85;14.45;;;;;;;;;;4991627;28;20027;-42
2022/03/10 11:37:58;;;;;;;23.90;12.48;;;;;;;;;;4991688;28;20447;-51
2022/03/10 11:40:43;;;;;;;23.75;14.38;;;;;;;;;;4992079;28;20523;-45
2022/03/10 11:43:10;;;;;;;23.48;15.10;;;;;;;;;;4991109;28;20070;-45
2022/03/10 11:45:36;;;;;;;14.75;9.27;;;;;;;;;;4991166;28;20026;-45
2022/03/10 11:48:34;;;;;;;11.95;7.53;;;;;;;;;;4992118;28;20117;-44
2022/03/10 11:51:08;;;;;;;18.10;11.00;;;;;;;;;;4953433;29;20122;-43
2022/03/10 11:53:53;;;;;;;16.95;10.80;;;;;;;;;;4953347;29;20098;-46
2022/03/10 11:56:32;;;;;;;22.58;11.98;;;;;;;;;;4953154;29;20035;-48
2022/03/10 11:59:16;;;;;;;18.08;12.10;;;;;;;;;;4953302;29;20031;-42
2022/03/10 12:01:48;;;;;;;14.52;9.73;;;;;;;;;;4969720;28;20056;-42
2022/03/10 12:04:17;;;;;;;11.55;7.45;;;;;;;;;;5011718;28;20048;-43
2022/03/10 12:06:56;;;;;;;18.17;8.65;;;;;;;;;;5011442;28;20030;-43
2022/03/10 12:09:33;;;;;;;17.73;8.20;;;;;;;;;;5011502;28;20076;-46
2022/03/10 12:12:18;;;;;;;13.38;6.82;;;;;;;;;;5011682;28;20041;-51
2022/03/10 12:14:44;;;;;;;14.02;8.48;;;;;;;;;;5011253;28;20056;-52
2022/03/10 12:17:29;;;;;;;16.40;8.32;;;;;;;;;;5011549;28;20030;-52
2022/03/10 12:20:15;;;;;;;14.50;8.38;;;;;;;;;;5011261;28;20030;-53
2022/03/10 12:23:01;;;;;;;11.10;7.43;;;;;;;;;;5011130;28;20034;-51
2022/03/10 12:25:27;;;;;;;12.05;7.13;;;;;;;;;;5012206;28;20057;-52
2022/03/10 12:27:54;;;;;;;14.35;9.18;;;;;;;;;;5034984;28;20385;-52
2022/03/10 12:30:22;;;;;;;11.98;7.18;;;;;;;;;;5052856;28;20036;-52
2022/03/10 12:32:51;;;;;;;23.65;9.70;;;;;;;;;;5053219;28;20033;-51
2022/03/10 12:35:19;;;;;;;19.92;9.43;;;;;;;;;;5052911;28;20021;-53
2022/03/10 12:37:49;;;;;;;12.10;7.22;;;;;;;;;;5052927;28;20025;-51
2022/03/10 12:40:25;;;;;;;10.50;6.50;;;;;;;;;;5052749;28;20017;-51
2022/03/10 12:42:52;;;;;;;10.82;7.20;;;;;;;;;;5052907;28;20052;-51
2022/03/10 12:45:21;;;;;;;13.07;8.90;;;;;;;;;;5053200;28;20369;-44
2022/03/10 12:47:50;;;;;;;12.52;7.55;;;;;;;;;;5052848;28;20025;-52
2022/03/10 12:50:16;;;;;;;14.13;7.47;;;;;;;;;;5052947;28;20021;-46
2022/03/10 12:52:42;;;;;;;16.48;7.65;;;;;;;;;;5052893;28;20059;-46
2022/03/10 12:55:10;;;;;;;11.35;7.10;;;;;;;;;;5055204;28;20025;-44
2022/03/10 12:57:37;;;;;;;22.95;10.50;;;;;;;;;;5056949;28;20025;-44
2022/03/10 13:00:21;;;;;;;18.85;10.25;;;;;;;;;;5056419;28;20055;-41
2022/03/10 13:02:50;;;;;;;14.32;7.20;;;;;;;;;;5056292;28;20049;-49
2022/03/10 13:05:22;;;;;;;18.25;8.98;;;;;;;;;;5056698;28;20024;-47
2022/03/10 13:07:49;;;;;;;18.08;7.82;;;;;;;;;;5056460;28;20024;-46
2022/03/10 13:10:17;;;;;;;12.75;7.07;;;;;;;;;;5056531;28;20449;-46
2022/03/10 13:12:48;;;;;;;14.88;6.93;;;;;;;;;;5056508;28;20112;-50
2022/03/10 13:15:21;;;;;;;10.63;6.45;;;;;;;;;;5056388;28;20021;-50
2022/03/10 13:17:47;;;;;;;16.50;7.95;;;;;;;;;;5038406;28;20082;-51
2022/03/10 13:20:14;;;;;;;15.18;7.35;;;;;;;;;;5056648;28;20021;-51
2022/03/10 13:22:53;;;;;;;9.55;5.40;;;;;;;;;;5056127;28;20095;-50
2022/03/10 13:25:20;;;;;;;14.82;6.47;;;;;;;;;;5056552;28;20548;-53
2022/03/10 13:27:47;;;;;;;11.48;5.80;;;;;;;;;;5056199;28;20029;-42
2022/03/10 13:30:22;;;;;;;13.45;6.75;;;;;;;;;;5056111;28;20029;-46
2022/03/10 13:32:53;;;;;;;14.13;7.03;;;;;;;;;;5055969;28;20025;-49
2022/03/10 13:35:24;;;;;;;12.63;6.35;;;;;;;;;;5056133;28;20047;-43
2022/03/10 13:37:51;;;;;;;12.90;7.35;;;;;;;;;;5056127;28;20043;-42
2022/03/10 13:40:19;;;;;;;10.65;5.55;;;;;;;;;;5055924;28;20057;-46
2022/03/10 13:42:46;;;;;;;8.82;5.88;;;;;;;;;;5055832;28;20037;-50
2022/03/10 13:45:13;;;;;;;8.48;5.55;;;;;;;;;;5055947;28;20025;-47
2022/03/10 13:47:57;;;;;;;10.20;6.45;;;;;;;;;;5056350;28;20104;-50
2022/03/10 13:50:25;;;;;;;10.73;5.22;;;;;;;;;;5068802;28;20074;-50
2022/03/10 13:52:55;;;;;;;18.17;10.43;;;;;;;;;;5057193;28;20411;-52
2022/03/10 13:55:25;;;;;;;18.65;10.45;;;;;;;;;;5075135;28;20422;-50
2022/03/10 13:57:51;;;;;;;10.90;6.90;;;;;;;;;;5074989;28;20372;-48
2022/03/10 14:00:27;;;;;;;19.33;8.82;;;;;;;;;;5074844;28;20021;-46
2022/03/10 14:02:53;;;;;;;12.77;7.88;;;;;;;;;;5074851;28;20044;-49
2022/03/10 14:05:20;;;;;;;12.43;7.60;;;;;;;;;;5074372;28;20021;-46
2022/03/10 14:07:56;;;;;;;13.45;7.15;;;;;;;;;;5074356;28;20496;-43
2022/03/10 14:10:31;;;;;;;15.57;8.15;;;;;;;;;;5074826;28;20058;-50
2022/03/10 14:12:57;;;;;;;7.75;4.78;;;;;;;;;;5072772;28;20065;-45
2022/03/10 14:15:27;;;;;;;10.30;5.68;;;;;;;;;;5074980;28;20021;-51
2022/03/10 14:17:56;;;;;;;10.40;5.93;;;;;;;;;;5072244;28;20042;-48
2022/03/10 14:20:22;;;;;;;15.52;8.88;;;;;;;;;;5074744;28;20048;-51
2022/03/10 14:22:48;;;;;;;15.23;9.50;;;;;;;;;;5056609;28;20179;-48
2022/03/10 14:25:14;;;;;;;18.25;8.57;;;;;;;;;;5074587;28;20021;-49
2022/03/10 14:27:45;;;;;;;11.43;6.65;;;;;;;;;;5074568;28;20093;-47
2022/03/10 14:30:12;;;;;;;19.13;11.93;;;;;;;;;;5074426;28;20433;-52